sensor_id;sensor_type;location;lat;lon;timestamp;P1;durP1;ratioP1;P2;durP2;ratioP2
61407;SDS011;47274;43.054;25.146;2023-12-28T00:00:37;7.73;;;3.87;;
61407;SDS011;47274;43.054;25.146;2023-12-28T00:03:03;9.33;;;4.37;;
61407;SDS011;47274;43.054;25.146;2023-12-28T00:05:30;10.17;;;3.90;;
61407;SDS011;47274;43.054;25.146;2023-12-28T00:07:56;12.67;;;4.30;;
61407;SDS011;47274;43.054;25.146;2023-12-28T00:10:28;11.87;;;4.67;;
61407;SDS011;47274;43.054;25.146;2023-12-28T00:13:08;11.87;;;4.30;;
61407;SDS011;47274;43.054;25.146;2023-12-28T00:15:49;10.73;;;4.27;;
61407;SDS011;47274;43.054;25.146;2023-12-28T00:18:30;10.23;;;4.17;;
61407;SDS011;47274;43.054;25.146;2023-12-28T00:21:07;12.50;;;4.00;;
61407;SDS011;47274;43.054;25.146;2023-12-28T00:23:33;9.20;;;3.83;;
61407;SDS011;47274;43.054;25.146;2023-12-28T00:25:59;10.13;;;3.83;;
61407;SDS011;47274;43.054;25.146;2023-12-28T00:28:24;9.70;;;3.83;;
61407;SDS011;47274;43.054;25.146;2023-12-28T00:30:50;7.43;;;3.77;;
61407;SDS011;47274;43.054;25.146;2023-12-28T00:33:16;10.73;;;3.87;;
61407;SDS011;47274;43.054;25.146;2023-12-28T00:35:42;9.37;;;3.73;;
61407;SDS011;47274;43.054;25.146;2023-12-28T00:38:08;9.43;;;4.00;;
61407;SDS011;47274;43.054;25.146;2023-12-28T00:40:34;7.53;;;3.50;;
61407;SDS011;47274;43.054;25.146;2023-12-28T00:43:00;8.23;;;3.67;;
61407;SDS011;47274;43.054;25.146;2023-12-28T00:45:26;12.10;;;4.03;;
61407;SDS011;47274;43.054;25.146;2023-12-28T00:47:51;8.73;;;3.80;;
61407;SDS011;47274;43.054;25.146;2023-12-28T00:50:23;8.77;;;3.73;;
61407;SDS011;47274;43.054;25.146;2023-12-28T00:53:04;13.07;;;4.37;;
61407;SDS011;47274;43.054;25.146;2023-12-28T00:55:48;10.87;;;3.80;;
61407;SDS011;47274;43.054;25.146;2023-12-28T00:58:30;11.07;;;3.80;;
61407;SDS011;47274;43.054;25.146;2023-12-28T01:00:56;10.10;;;4.00;;
61407;SDS011;47274;43.054;25.146;2023-12-28T01:03:23;9.60;;;3.90;;
61407;SDS011;47274;43.054;25.146;2023-12-28T01:05:49;11.47;;;4.17;;
61407;SDS011;47274;43.054;25.146;2023-12-28T01:08:17;7.23;;;3.93;;
61407;SDS011;47274;43.054;25.146;2023-12-28T01:10:43;10.40;;;3.90;;
61407;SDS011;47274;43.054;25.146;2023-12-28T01:13:09;9.17;;;3.70;;
61407;SDS011;47274;43.054;25.146;2023-12-28T01:15:35;9.23;;;3.77;;
61407;SDS011;47274;43.054;25.146;2023-12-28T01:18:00;10.40;;;3.60;;
61407;SDS011;47274;43.054;25.146;2023-12-28T01:20:26;10.33;;;4.03;;
61407;SDS011;47274;43.054;25.146;2023-12-28T01:22:52;6.93;;;3.50;;
61407;SDS011;47274;43.054;25.146;2023-12-28T01:25:18;8.80;;;3.47;;
61407;SDS011;47274;43.054;25.146;2023-12-28T01:27:44;6.97;;;3.30;;
61407;SDS011;47274;43.054;25.146;2023-12-28T01:30:09;6.40;;;3.50;;
61407;SDS011;47274;43.054;25.146;2023-12-28T01:32:38;6.10;;;3.20;;
61407;SDS011;47274;43.054;25.146;2023-12-28T01:35:22;9.50;;;3.80;;
61407;SDS011;47274;43.054;25.146;2023-12-28T01:38:01;8.87;;;3.43;;
61407;SDS011;47274;43.054;25.146;2023-12-28T01:40:46;8.13;;;3.60;;
61407;SDS011;47274;43.054;25.146;2023-12-28T01:45:49;6.53;;;3.57;;
61407;SDS011;47274;43.054;25.146;2023-12-28T01:48:14;9.30;;;3.93;;
61407;SDS011;47274;43.054;25.146;2023-12-28T01:50:41;12.13;;;3.63;;
61407;SDS011;47274;43.054;25.146;2023-12-28T01:53:07;7.30;;;3.57;;
61407;SDS011;47274;43.054;25.146;2023-12-28T01:55:37;10.77;;;4.00;;
61407;SDS011;47274;43.054;25.146;2023-12-28T01:58:05;9.20;;;3.70;;
61407;SDS011;47274;43.054;25.146;2023-12-28T02:00:47;7.90;;;3.30;;
61407;SDS011;47274;43.054;25.146;2023-12-28T02:03:29;10.20;;;3.73;;
61407;SDS011;47274;43.054;25.146;2023-12-28T02:06:07;9.23;;;3.90;;
61407;SDS011;47274;43.054;25.146;2023-12-28T02:08:47;9.63;;;3.67;;
61407;SDS011;47274;43.054;25.146;2023-12-28T02:11:13;6.90;;;3.67;;
61407;SDS011;47274;43.054;25.146;2023-12-28T02:13:39;5.70;;;3.30;;
61407;SDS011;47274;43.054;25.146;2023-12-28T02:16:15;10.37;;;3.30;;
61407;SDS011;47274;43.054;25.146;2023-12-28T02:19:09;8.63;;;3.93;;
61407;SDS011;47274;43.054;25.146;2023-12-28T02:21:56;12.73;;;4.10;;
61407;SDS011;47274;43.054;25.146;2023-12-28T02:24:24;7.77;;;3.60;;
61407;SDS011;47274;43.054;25.146;2023-12-28T02:26:50;10.43;;;3.80;;
61407;SDS011;47274;43.054;25.146;2023-12-28T02:29:16;8.37;;;3.90;;
61407;SDS011;47274;43.054;25.146;2023-12-28T02:31:48;10.60;;;4.30;;
61407;SDS011;47274;43.054;25.146;2023-12-28T02:34:36;9.57;;;4.20;;
61407;SDS011;47274;43.054;25.146;2023-12-28T02:37:21;11.07;;;4.60;;
61407;SDS011;47274;43.054;25.146;2023-12-28T02:42:39;13.00;;;4.17;;
61407;SDS011;47274;43.054;25.146;2023-12-28T02:45:05;11.00;;;4.40;;
61407;SDS011;47274;43.054;25.146;2023-12-28T02:47:32;13.57;;;4.20;;
61407;SDS011;47274;43.054;25.146;2023-12-28T02:49:57;9.93;;;3.90;;
61407;SDS011;47274;43.054;25.146;2023-12-28T02:52:24;15.33;;;4.60;;
61407;SDS011;47274;43.054;25.146;2023-12-28T02:54:51;9.63;;;4.00;;
61407;SDS011;47274;43.054;25.146;2023-12-28T02:57:16;11.27;;;4.27;;
61407;SDS011;47274;43.054;25.146;2023-12-28T02:59:44;10.50;;;4.00;;
61407;SDS011;47274;43.054;25.146;2023-12-28T03:02:10;8.73;;;3.90;;
61407;SDS011;47274;43.054;25.146;2023-12-28T03:04:36;8.63;;;3.80;;
61407;SDS011;47274;43.054;25.146;2023-12-28T03:07:02;7.37;;;3.57;;
61407;SDS011;47274;43.054;25.146;2023-12-28T03:09:28;7.57;;;3.77;;
61407;SDS011;47274;43.054;25.146;2023-12-28T03:11:54;7.67;;;3.30;;
61407;SDS011;47274;43.054;25.146;2023-12-28T03:14:23;6.93;;;3.77;;
61407;SDS011;47274;43.054;25.146;2023-12-28T03:17:02;8.87;;;3.50;;
61407;SDS011;47274;43.054;25.146;2023-12-28T03:19:46;10.00;;;3.60;;
61407;SDS011;47274;43.054;25.146;2023-12-28T03:22:34;8.10;;;3.90;;
61407;SDS011;47274;43.054;25.146;2023-12-28T03:25:14;8.32;;;3.67;;
61407;SDS011;47274;43.054;25.146;2023-12-28T03:27:39;8.07;;;3.90;;
61407;SDS011;47274;43.054;25.146;2023-12-28T03:30:05;9.57;;;3.77;;
61407;SDS011;47274;43.054;25.146;2023-12-28T03:32:32;8.77;;;4.07;;
61407;SDS011;47274;43.054;25.146;2023-12-28T03:34:58;11.80;;;4.30;;
61407;SDS011;47274;43.054;25.146;2023-12-28T03:37:24;6.93;;;3.30;;
61407;SDS011;47274;43.054;25.146;2023-12-28T03:39:58;6.73;;;3.43;;
61407;SDS011;47274;43.054;25.146;2023-12-28T03:42:36;9.10;;;3.70;;
61407;SDS011;47274;43.054;25.146;2023-12-28T03:45:12;8.27;;;3.50;;
61407;SDS011;47274;43.054;25.146;2023-12-28T03:47:48;10.73;;;3.60;;
61407;SDS011;47274;43.054;25.146;2023-12-28T03:50:16;12.30;;;3.73;;
61407;SDS011;47274;43.054;25.146;2023-12-28T03:52:42;7.63;;;3.57;;
61407;SDS011;47274;43.054;25.146;2023-12-28T03:55:08;7.03;;;3.20;;
61407;SDS011;47274;43.054;25.146;2023-12-28T03:57:34;10.63;;;4.20;;
61407;SDS011;47274;43.054;25.146;2023-12-28T04:00:00;8.73;;;3.93;;
61407;SDS011;47274;43.054;25.146;2023-12-28T04:02:26;7.13;;;3.33;;
61407;SDS011;47274;43.054;25.146;2023-12-28T04:04:56;6.93;;;3.60;;
61407;SDS011;47274;43.054;25.146;2023-12-28T04:07:24;7.77;;;3.57;;
61407;SDS011;47274;43.054;25.146;2023-12-28T04:09:54;7.97;;;3.13;;
61407;SDS011;47274;43.054;25.146;2023-12-28T04:12:36;6.30;;;3.63;;
61407;SDS011;47274;43.054;25.146;2023-12-28T04:15:14;7.83;;;3.60;;
61407;SDS011;47274;43.054;25.146;2023-12-28T04:17:52;8.93;;;3.37;;
61407;SDS011;47274;43.054;25.146;2023-12-28T04:20:31;6.73;;;3.27;;
61407;SDS011;47274;43.054;25.146;2023-12-28T04:22:57;7.40;;;3.23;;
61407;SDS011;47274;43.054;25.146;2023-12-28T04:25:23;11.63;;;3.60;;
61407;SDS011;47274;43.054;25.146;2023-12-28T04:27:49;7.70;;;3.60;;
61407;SDS011;47274;43.054;25.146;2023-12-28T04:30:14;8.13;;;3.10;;
61407;SDS011;47274;43.054;25.146;2023-12-28T04:32:44;6.40;;;3.17;;
61407;SDS011;47274;43.054;25.146;2023-12-28T04:35:28;8.60;;;3.63;;
61407;SDS011;47274;43.054;25.146;2023-12-28T04:38:10;7.50;;;3.10;;
61407;SDS011;47274;43.054;25.146;2023-12-28T04:40:52;8.10;;;3.53;;
61407;SDS011;47274;43.054;25.146;2023-12-28T04:43:26;9.10;;;3.43;;
61407;SDS011;47274;43.054;25.146;2023-12-28T04:45:52;10.37;;;3.50;;
61407;SDS011;47274;43.054;25.146;2023-12-28T04:48:18;7.50;;;3.30;;
61407;SDS011;47274;43.054;25.146;2023-12-28T04:50:49;7.43;;;3.43;;
61407;SDS011;47274;43.054;25.146;2023-12-28T04:53:15;11.20;;;3.93;;
61407;SDS011;47274;43.054;25.146;2023-12-28T04:55:41;10.30;;;3.80;;
61407;SDS011;47274;43.054;25.146;2023-12-28T04:58:07;10.23;;;3.87;;
61407;SDS011;47274;43.054;25.146;2023-12-28T05:00:33;6.87;;;3.27;;
61407;SDS011;47274;43.054;25.146;2023-12-28T05:02:59;9.27;;;3.43;;
61407;SDS011;47274;43.054;25.146;2023-12-28T05:05:25;10.27;;;3.63;;
61407;SDS011;47274;43.054;25.146;2023-12-28T05:07:51;9.40;;;3.73;;
61407;SDS011;47274;43.054;25.146;2023-12-28T05:10:17;7.10;;;3.43;;
61407;SDS011;47274;43.054;25.146;2023-12-28T05:12:42;7.67;;;3.80;;
61407;SDS011;47274;43.054;25.146;2023-12-28T05:15:09;8.07;;;4.00;;
61407;SDS011;47274;43.054;25.146;2023-12-28T05:17:35;10.13;;;3.80;;
61407;SDS011;47274;43.054;25.146;2023-12-28T05:20:00;10.03;;;4.10;;
61407;SDS011;47274;43.054;25.146;2023-12-28T05:22:26;8.77;;;3.53;;
61407;SDS011;47274;43.054;25.146;2023-12-28T05:24:52;13.87;;;4.13;;
61407;SDS011;47274;43.054;25.146;2023-12-28T05:27:18;8.23;;;4.00;;
61407;SDS011;47274;43.054;25.146;2023-12-28T05:29:44;9.80;;;4.37;;
61407;SDS011;47274;43.054;25.146;2023-12-28T05:32:10;10.17;;;4.23;;
61407;SDS011;47274;43.054;25.146;2023-12-28T05:34:38;10.60;;;4.30;;
61407;SDS011;47274;43.054;25.146;2023-12-28T05:37:21;10.75;;;4.30;;
61407;SDS011;47274;43.054;25.146;2023-12-28T05:39:55;14.33;;;4.77;;
61407;SDS011;47274;43.054;25.146;2023-12-28T05:42:29;12.43;;;4.80;;
61407;SDS011;47274;43.054;25.146;2023-12-28T05:45:06;11.97;;;4.20;;
61407;SDS011;47274;43.054;25.146;2023-12-28T05:47:50;10.50;;;4.37;;
61407;SDS011;47274;43.054;25.146;2023-12-28T05:50:32;10.93;;;4.10;;
61407;SDS011;47274;43.054;25.146;2023-12-28T05:53:15;9.40;;;4.00;;
61407;SDS011;47274;43.054;25.146;2023-12-28T05:55:57;11.33;;;4.10;;
61407;SDS011;47274;43.054;25.146;2023-12-28T05:58:39;8.07;;;3.70;;
61407;SDS011;47274;43.054;25.146;2023-12-28T06:01:18;8.80;;;3.77;;
61407;SDS011;47274;43.054;25.146;2023-12-28T06:04:06;8.57;;;3.50;;
61407;SDS011;47274;43.054;25.146;2023-12-28T06:06:48;5.03;;;3.27;;
61407;SDS011;47274;43.054;25.146;2023-12-28T06:09:27;8.73;;;3.20;;
61407;SDS011;47274;43.054;25.146;2023-12-28T06:12:09;5.10;;;3.07;;
61407;SDS011;47274;43.054;25.146;2023-12-28T06:14:45;6.13;;;3.10;;
61407;SDS011;47274;43.054;25.146;2023-12-28T06:17:33;9.80;;;3.55;;
61407;SDS011;47274;43.054;25.146;2023-12-28T06:20:15;5.17;;;2.80;;
61407;SDS011;47274;43.054;25.146;2023-12-28T06:22:54;7.70;;;3.27;;
61407;SDS011;47274;43.054;25.146;2023-12-28T06:25:31;7.63;;;3.10;;
61407;SDS011;47274;43.054;25.146;2023-12-28T06:28:17;5.03;;;2.70;;
61407;SDS011;47274;43.054;25.146;2023-12-28T06:30:58;5.17;;;3.10;;
61407;SDS011;47274;43.054;25.146;2023-12-28T06:33:40;8.38;;;3.40;;
61407;SDS011;47274;43.054;25.146;2023-12-28T06:36:25;6.93;;;2.97;;
61407;SDS011;47274;43.054;25.146;2023-12-28T06:39:09;4.60;;;2.90;;
61407;SDS011;47274;43.054;25.146;2023-12-28T06:41:51;4.57;;;3.00;;
61407;SDS011;47274;43.054;25.146;2023-12-28T06:44:31;6.50;;;2.85;;
61407;SDS011;47274;43.054;25.146;2023-12-28T06:47:00;5.40;;;2.90;;
61407;SDS011;47274;43.054;25.146;2023-12-28T06:49:47;7.68;;;3.10;;
61407;SDS011;47274;43.054;25.146;2023-12-28T06:52:25;8.40;;;2.80;;
61407;SDS011;47274;43.054;25.146;2023-12-28T06:55:03;6.05;;;3.00;;
61407;SDS011;47274;43.054;25.146;2023-12-28T06:57:31;7.65;;;3.00;;
61407;SDS011;47274;43.054;25.146;2023-12-28T07:00:15;5.43;;;3.20;;
61407;SDS011;47274;43.054;25.146;2023-12-28T07:05:40;8.57;;;3.20;;
61407;SDS011;47274;43.054;25.146;2023-12-28T07:08:19;7.20;;;3.20;;
61407;SDS011;47274;43.054;25.146;2023-12-28T07:11:03;6.53;;;3.30;;
61407;SDS011;47274;43.054;25.146;2023-12-28T07:13:51;7.07;;;2.90;;
61407;SDS011;47274;43.054;25.146;2023-12-28T07:16:33;8.93;;;3.38;;
61407;SDS011;47274;43.054;25.146;2023-12-28T07:19:17;4.97;;;2.97;;
61407;SDS011;47274;43.054;25.146;2023-12-28T07:21:56;4.80;;;2.90;;
61407;SDS011;47274;43.054;25.146;2023-12-28T07:24:40;6.40;;;3.10;;
61407;SDS011;47274;43.054;25.146;2023-12-28T07:27:22;5.35;;;3.20;;
61407;SDS011;47274;43.054;25.146;2023-12-28T07:30:16;7.35;;;2.97;;
61407;SDS011;47274;43.054;25.146;2023-12-28T07:32:53;8.50;;;3.30;;
61407;SDS011;47274;43.054;25.146;2023-12-28T07:35:37;5.95;;;3.00;;
61407;SDS011;47274;43.054;25.146;2023-12-28T07:38:19;8.75;;;3.13;;
61407;SDS011;47274;43.054;25.146;2023-12-28T07:41:07;4.85;;;3.00;;
61407;SDS011;47274;43.054;25.146;2023-12-28T07:43:51;4.05;;;2.58;;
61407;SDS011;47274;43.054;25.146;2023-12-28T07:46:55;6.65;;;2.85;;
61407;SDS011;47274;43.054;25.146;2023-12-28T07:49:51;4.53;;;2.40;;
61407;SDS011;47274;43.054;25.146;2023-12-28T07:52:35;5.40;;;2.95;;
61407;SDS011;47274;43.054;25.146;2023-12-28T07:55:16;7.32;;;2.92;;
61407;SDS011;47274;43.054;25.146;2023-12-28T07:58:04;8.10;;;3.05;;
61407;SDS011;47274;43.054;25.146;2023-12-28T08:00:46;5.60;;;3.20;;
61407;SDS011;47274;43.054;25.146;2023-12-28T08:03:23;6.25;;;3.15;;
61407;SDS011;47274;43.054;25.146;2023-12-28T08:05:51;6.85;;;3.17;;
61407;SDS011;47274;43.054;25.146;2023-12-28T08:08:20;5.07;;;3.10;;
61407;SDS011;47274;43.054;25.146;2023-12-28T08:11:04;10.13;;;3.03;;
61407;SDS011;47274;43.054;25.146;2023-12-28T08:13:49;6.22;;;3.20;;
61407;SDS011;47274;43.054;25.146;2023-12-28T08:16:21;6.93;;;2.90;;
61407;SDS011;47274;43.054;25.146;2023-12-28T08:18:54;5.82;;;2.72;;
61407;SDS011;47274;43.054;25.146;2023-12-28T08:21:32;5.45;;;2.97;;
61407;SDS011;47274;43.054;25.146;2023-12-28T08:24:11;7.45;;;3.28;;
61407;SDS011;47274;43.054;25.146;2023-12-28T08:26:37;7.95;;;3.42;;
61407;SDS011;47274;43.054;25.146;2023-12-28T08:29:03;8.35;;;3.33;;
61407;SDS011;47274;43.054;25.146;2023-12-28T08:31:34;7.57;;;3.40;;
61407;SDS011;47274;43.054;25.146;2023-12-28T08:34:05;8.50;;;3.38;;
61407;SDS011;47274;43.054;25.146;2023-12-28T08:36:33;7.20;;;3.15;;
61407;SDS011;47274;43.054;25.146;2023-12-28T08:38:59;5.70;;;3.33;;
61407;SDS011;47274;43.054;25.146;2023-12-28T08:41:40;6.68;;;3.65;;
61407;SDS011;47274;43.054;25.146;2023-12-28T08:44:19;8.18;;;3.42;;
61407;SDS011;47274;43.054;25.146;2023-12-28T08:46:58;5.90;;;3.20;;
61407;SDS011;47274;43.054;25.146;2023-12-28T08:49:26;7.40;;;3.10;;
61407;SDS011;47274;43.054;25.146;2023-12-28T08:52:11;8.00;;;3.38;;
61407;SDS011;47274;43.054;25.146;2023-12-28T08:54:56;6.50;;;3.40;;
61407;SDS011;47274;43.054;25.146;2023-12-28T08:57:31;6.35;;;3.20;;
61407;SDS011;47274;43.054;25.146;2023-12-28T09:00:04;6.22;;;3.70;;
61407;SDS011;47274;43.054;25.146;2023-12-28T09:02:49;8.25;;;4.40;;
61407;SDS011;47274;43.054;25.146;2023-12-28T09:05:27;9.55;;;4.53;;
61407;SDS011;47274;43.054;25.146;2023-12-28T09:08:10;13.48;;;5.00;;
61407;SDS011;47274;43.054;25.146;2023-12-28T09:10:52;15.35;;;5.68;;
61407;SDS011;47274;43.054;25.146;2023-12-28T09:13:18;11.48;;;4.78;;
61407;SDS011;47274;43.054;25.146;2023-12-28T09:15:45;14.80;;;6.05;;
61407;SDS011;47274;43.054;25.146;2023-12-28T09:18:11;14.48;;;5.20;;
61407;SDS011;47274;43.054;25.146;2023-12-28T09:20:37;11.63;;;5.47;;
61407;SDS011;47274;43.054;25.146;2023-12-28T09:23:02;18.02;;;7.78;;
61407;SDS011;47274;43.054;25.146;2023-12-28T09:25:28;28.73;;;15.00;;
61407;SDS011;47274;43.054;25.146;2023-12-28T09:27:54;20.98;;;9.70;;
61407;SDS011;47274;43.054;25.146;2023-12-28T09:30:20;19.98;;;9.82;;
61407;SDS011;47274;43.054;25.146;2023-12-28T09:32:48;42.97;;;24.75;;
61407;SDS011;47274;43.054;25.146;2023-12-28T09:35:17;31.15;;;14.93;;
61407;SDS011;47274;43.054;25.146;2023-12-28T09:37:55;37.78;;;21.35;;
61407;SDS011;47274;43.054;25.146;2023-12-28T09:40:32;33.72;;;19.17;;
61407;SDS011;47274;43.054;25.146;2023-12-28T09:43:29;32.47;;;18.63;;
61407;SDS011;47274;43.054;25.146;2023-12-28T09:46:19;27.40;;;12.80;;
61407;SDS011;47274;43.054;25.146;2023-12-28T09:48:50;21.65;;;11.48;;
61407;SDS011;47274;43.054;25.146;2023-12-28T09:51:33;24.55;;;13.95;;
61407;SDS011;47274;43.054;25.146;2023-12-28T09:54:02;22.52;;;13.52;;
61407;SDS011;47274;43.054;25.146;2023-12-28T09:56:43;28.65;;;18.63;;
61407;SDS011;47274;43.054;25.146;2023-12-28T09:59:25;26.35;;;17.02;;
61407;SDS011;47274;43.054;25.146;2023-12-28T10:02:10;22.58;;;12.13;;
61407;SDS011;47274;43.054;25.146;2023-12-28T10:05:00;24.23;;;12.75;;
61407;SDS011;47274;43.054;25.146;2023-12-28T10:07:47;19.13;;;9.15;;
61407;SDS011;47274;43.054;25.146;2023-12-28T10:10:28;20.08;;;9.30;;
61407;SDS011;47274;43.054;25.146;2023-12-28T10:13:05;17.17;;;7.85;;
61407;SDS011;47274;43.054;25.146;2023-12-28T10:15:35;12.20;;;5.82;;
61407;SDS011;47274;43.054;25.146;2023-12-28T10:18:16;10.93;;;5.15;;
61407;SDS011;47274;43.054;25.146;2023-12-28T10:21:02;9.77;;;5.10;;
61407;SDS011;47274;43.054;25.146;2023-12-28T10:23:42;10.10;;;4.53;;
61407;SDS011;47274;43.054;25.146;2023-12-28T10:26:08;9.13;;;4.72;;
61407;SDS011;47274;43.054;25.146;2023-12-28T10:28:34;5.28;;;2.90;;
61407;SDS011;47274;43.054;25.146;2023-12-28T10:31:05;5.18;;;2.83;;
61407;SDS011;47274;43.054;25.146;2023-12-28T10:33:46;3.67;;;2.65;;
61407;SDS011;47274;43.054;25.146;2023-12-28T10:36:31;4.40;;;3.00;;
61407;SDS011;47274;43.054;25.146;2023-12-28T10:39:18;6.40;;;3.22;;
61407;SDS011;47274;43.054;25.146;2023-12-28T10:42:01;7.25;;;3.58;;
61407;SDS011;47274;43.054;25.146;2023-12-28T10:44:49;4.78;;;2.72;;
61407;SDS011;47274;43.054;25.146;2023-12-28T10:47:38;4.03;;;3.00;;
61407;SDS011;47274;43.054;25.146;2023-12-28T10:50:26;5.45;;;3.05;;
61407;SDS011;47274;43.054;25.146;2023-12-28T10:53:00;6.63;;;3.50;;
61407;SDS011;47274;43.054;25.146;2023-12-28T10:55:36;15.75;;;8.63;;
61407;SDS011;47274;43.054;25.146;2023-12-28T10:58:12;4.43;;;3.13;;
61407;SDS011;47274;43.054;25.146;2023-12-28T11:00:49;4.68;;;2.80;;
61407;SDS011;47274;43.054;25.146;2023-12-28T11:03:23;14.50;;;7.38;;
61407;SDS011;47274;43.054;25.146;2023-12-28T11:05:53;18.98;;;9.07;;
61407;SDS011;47274;43.054;25.146;2023-12-28T11:08:20;14.23;;;5.03;;
61407;SDS011;47274;43.054;25.146;2023-12-28T11:10:47;5.18;;;3.50;;
61407;SDS011;47274;43.054;25.146;2023-12-28T11:13:16;19.67;;;11.25;;
61407;SDS011;47274;43.054;25.146;2023-12-28T11:15:48;12.13;;;5.75;;
61407;SDS011;47274;43.054;25.146;2023-12-28T11:18:35;7.00;;;3.83;;
61407;SDS011;47274;43.054;25.146;2023-12-28T11:21:13;17.35;;;7.60;;
61407;SDS011;47274;43.054;25.146;2023-12-28T11:23:50;8.23;;;4.57;;
61407;SDS011;47274;43.054;25.146;2023-12-28T11:26:20;11.68;;;6.45;;
61407;SDS011;47274;43.054;25.146;2023-12-28T11:28:47;8.13;;;5.05;;
61407;SDS011;47274;43.054;25.146;2023-12-28T11:31:14;8.85;;;4.05;;
61407;SDS011;47274;43.054;25.146;2023-12-28T11:33:44;6.63;;;3.80;;
61407;SDS011;47274;43.054;25.146;2023-12-28T11:36:35;9.68;;;6.05;;
61407;SDS011;47274;43.054;25.146;2023-12-28T11:39:06;17.15;;;9.40;;
61407;SDS011;47274;43.054;25.146;2023-12-28T11:41:32;11.60;;;6.50;;
61407;SDS011;47274;43.054;25.146;2023-12-28T11:44:05;17.17;;;10.07;;
61407;SDS011;47274;43.054;25.146;2023-12-28T11:46:31;16.23;;;5.85;;
61407;SDS011;47274;43.054;25.146;2023-12-28T11:49:07;6.53;;;3.83;;
61407;SDS011;47274;43.054;25.146;2023-12-28T11:51:38;7.05;;;4.25;;
61407;SDS011;47274;43.054;25.146;2023-12-28T11:54:05;57.85;;;13.25;;
61407;SDS011;47274;43.054;25.146;2023-12-28T11:56:32;22.23;;;7.00;;
61407;SDS011;47274;43.054;25.146;2023-12-28T11:59:02;22.33;;;9.48;;
61407;SDS011;47274;43.054;25.146;2023-12-28T12:01:27;17.17;;;7.00;;
61407;SDS011;47274;43.054;25.146;2023-12-28T12:03:53;17.75;;;9.38;;
61407;SDS011;47274;43.054;25.146;2023-12-28T12:06:19;13.68;;;6.38;;
61407;SDS011;47274;43.054;25.146;2023-12-28T12:08:45;11.07;;;5.95;;
61407;SDS011;47274;43.054;25.146;2023-12-28T12:11:12;12.27;;;5.93;;
61407;SDS011;47274;43.054;25.146;2023-12-28T12:13:38;18.00;;;8.95;;
61407;SDS011;47274;43.054;25.146;2023-12-28T12:16:04;17.13;;;7.97;;
61407;SDS011;47274;43.054;25.146;2023-12-28T12:18:34;14.77;;;7.00;;
61407;SDS011;47274;43.054;25.146;2023-12-28T12:21:01;20.27;;;9.38;;
61407;SDS011;47274;43.054;25.146;2023-12-28T12:23:28;22.42;;;11.25;;
61407;SDS011;47274;43.054;25.146;2023-12-28T12:25:54;26.88;;;13.75;;
61407;SDS011;47274;43.054;25.146;2023-12-28T12:28:20;25.40;;;14.45;;
61407;SDS011;47274;43.054;25.146;2023-12-28T12:30:53;30.50;;;18.20;;
61407;SDS011;47274;43.054;25.146;2023-12-28T12:33:21;28.45;;;17.55;;
61407;SDS011;47274;43.054;25.146;2023-12-28T12:35:48;28.77;;;18.20;;
61407;SDS011;47274;43.054;25.146;2023-12-28T12:38:16;30.88;;;16.30;;
61407;SDS011;47274;43.054;25.146;2023-12-28T12:40:42;25.13;;;12.23;;
61407;SDS011;47274;43.054;25.146;2023-12-28T12:43:08;26.77;;;12.43;;
61407;SDS011;47274;43.054;25.146;2023-12-28T12:45:35;28.98;;;14.63;;
61407;SDS011;47274;43.054;25.146;2023-12-28T12:48:04;29.90;;;13.70;;
61407;SDS011;47274;43.054;25.146;2023-12-28T12:50:34;27.90;;;13.77;;
61407;SDS011;47274;43.054;25.146;2023-12-28T12:53:01;24.25;;;11.70;;
61407;SDS011;47274;43.054;25.146;2023-12-28T12:55:27;22.23;;;9.43;;
61407;SDS011;47274;43.054;25.146;2023-12-28T12:57:53;19.00;;;7.55;;
61407;SDS011;47274;43.054;25.146;2023-12-28T13:00:22;18.55;;;6.20;;
61407;SDS011;47274;43.054;25.146;2023-12-28T13:02:51;12.30;;;4.95;;
61407;SDS011;47274;43.054;25.146;2023-12-28T13:05:18;11.52;;;5.10;;
61407;SDS011;47274;43.054;25.146;2023-12-28T13:07:44;13.27;;;4.72;;
61407;SDS011;47274;43.054;25.146;2023-12-28T13:10:10;10.98;;;4.28;;
61407;SDS011;47274;43.054;25.146;2023-12-28T13:12:36;11.15;;;4.60;;
61407;SDS011;47274;43.054;25.146;2023-12-28T13:15:02;10.48;;;5.13;;
61407;SDS011;47274;43.054;25.146;2023-12-28T13:17:28;11.57;;;4.65;;
61407;SDS011;47274;43.054;25.146;2023-12-28T13:19:54;15.93;;;6.25;;
61407;SDS011;47274;43.054;25.146;2023-12-28T13:22:20;13.70;;;5.80;;
61407;SDS011;47274;43.054;25.146;2023-12-28T13:24:46;15.75;;;6.15;;
61407;SDS011;47274;43.054;25.146;2023-12-28T13:27:12;15.35;;;5.30;;
61407;SDS011;47274;43.054;25.146;2023-12-28T13:29:39;18.25;;;8.63;;
61407;SDS011;47274;43.054;25.146;2023-12-28T13:32:05;16.63;;;6.88;;
61407;SDS011;47274;43.054;25.146;2023-12-28T13:34:31;22.45;;;12.60;;
61407;SDS011;47274;43.054;25.146;2023-12-28T13:36:57;22.27;;;10.50;;
61407;SDS011;47274;43.054;25.146;2023-12-28T13:39:24;20.40;;;9.70;;
61407;SDS011;47274;43.054;25.146;2023-12-28T13:41:52;19.85;;;10.10;;
61407;SDS011;47274;43.054;25.146;2023-12-28T13:44:18;21.02;;;10.63;;
61407;SDS011;47274;43.054;25.146;2023-12-28T13:46:44;20.15;;;9.10;;
61407;SDS011;47274;43.054;25.146;2023-12-28T13:49:10;16.80;;;7.63;;
61407;SDS011;47274;43.054;25.146;2023-12-28T13:51:35;20.77;;;9.63;;
61407;SDS011;47274;43.054;25.146;2023-12-28T13:54:01;24.88;;;11.93;;
61407;SDS011;47274;43.054;25.146;2023-12-28T13:56:27;23.27;;;11.48;;
61407;SDS011;47274;43.054;25.146;2023-12-28T13:58:54;20.17;;;9.02;;
61407;SDS011;47274;43.054;25.146;2023-12-28T14:01:20;33.35;;;18.30;;
61407;SDS011;47274;43.054;25.146;2023-12-28T14:03:46;38.88;;;21.67;;
61407;SDS011;47274;43.054;25.146;2023-12-28T14:06:14;26.73;;;14.30;;
61407;SDS011;47274;43.054;25.146;2023-12-28T14:08:39;30.00;;;16.83;;
61407;SDS011;47274;43.054;25.146;2023-12-28T14:11:11;30.05;;;16.02;;
61407;SDS011;47274;43.054;25.146;2023-12-28T14:13:52;25.85;;;12.10;;
61407;SDS011;47274;43.054;25.146;2023-12-28T14:16:33;21.55;;;8.63;;
61407;SDS011;47274;43.054;25.146;2023-12-28T14:19:15;19.88;;;8.68;;
61407;SDS011;47274;43.054;25.146;2023-12-28T14:21:54;26.48;;;8.35;;
61407;SDS011;47274;43.054;25.146;2023-12-28T14:24:20;19.05;;;7.88;;
61407;SDS011;47274;43.054;25.146;2023-12-28T14:26:46;17.52;;;6.40;;
61407;SDS011;47274;43.054;25.146;2023-12-28T14:29:17;14.35;;;5.70;;
61407;SDS011;47274;43.054;25.146;2023-12-28T14:31:43;12.50;;;5.15;;
61407;SDS011;47274;43.054;25.146;2023-12-28T14:34:09;10.93;;;4.78;;
61407;SDS011;47274;43.054;25.146;2023-12-28T14:36:36;11.10;;;4.38;;
61407;SDS011;47274;43.054;25.146;2023-12-28T14:39:06;11.38;;;4.47;;
61407;SDS011;47274;43.054;25.146;2023-12-28T14:41:35;11.55;;;4.57;;
61407;SDS011;47274;43.054;25.146;2023-12-28T14:44:12;9.88;;;3.95;;
61407;SDS011;47274;43.054;25.146;2023-12-28T14:46:56;8.00;;;4.18;;
61407;SDS011;47274;43.054;25.146;2023-12-28T14:49:37;9.13;;;4.00;;
61407;SDS011;47274;43.054;25.146;2023-12-28T14:52:17;6.15;;;3.63;;
61407;SDS011;47274;43.054;25.146;2023-12-28T14:54:43;7.28;;;3.78;;
61407;SDS011;47274;43.054;25.146;2023-12-28T14:57:14;9.50;;;3.95;;
61407;SDS011;47274;43.054;25.146;2023-12-28T14:59:56;7.85;;;3.67;;
61407;SDS011;47274;43.054;25.146;2023-12-28T15:02:39;9.52;;;4.43;;
61407;SDS011;47274;43.054;25.146;2023-12-28T15:05:16;9.02;;;4.55;;
61407;SDS011;47274;43.054;25.146;2023-12-28T15:07:56;10.38;;;4.82;;